Time;durP1;ratioP1;P1;durP2;ratioP2;P2;SDS_P1;SDS_P2;PMS_P1;PMS_P2;Temp;Humidity;BMP_temperature;BMP_pressure;BME280_temperature;BME280_humidity;BME280_pressure;Samples;Min_cycle;Max_cycle;Signal;HPM_P1;HPM_P2
2021/12/01 00:06:33;;;;;;;25.38;11.78;;;;;;;2.18;100.00;98547.36;718983;1165;114221;-73
2021/12/01 00:21:35;;;;;;;27.75;12.78;;;;;;;2.07;100.00;98584.45;715204;1200;113734;-73
2021/12/01 00:36:37;;;;;;;26.75;12.13;;;;;;;1.92;100.00;98613.17;714313;1178;113798;-73
2021/12/01 00:51:40;;;;;;;29.27;14.13;;;;;;;1.91;100.00;98649.50;714323;1176;114258;-73
2021/12/01 01:06:43;;;;;;;23.80;10.70;;;;;;;1.95;100.00;98674.19;714179;1174;114363;-74
2021/12/01 01:21:49;;;;;;;25.10;12.75;;;;;;;1.94;100.00;98677.70;713787;1199;113917;-74
2021/12/01 01:36:52;;;;;;;32.65;12.93;;;;;;;1.83;100.00;98717.33;714027;1174;114680;-73
2021/12/01 01:51:55;;;;;;;31.30;15.08;;;;;;;1.79;100.00;98742.59;713744;1199;113818;-74
2021/12/01 02:06:58;;;;;;;37.97;16.17;;;;;;;1.77;100.00;98780.70;713762;1202;114330;-74
2021/12/01 02:22:00;;;;;;;27.15;12.95;;;;;;;1.98;100.00;98811.87;713641;1177;113678;-74
2021/12/01 02:37:03;;;;;;;21.83;10.00;;;;;;;2.13;100.00;98811.64;713689;1176;113858;-74
2021/12/01 02:52:06;;;;;;;22.83;9.90;;;;;;;1.94;100.00;98822.55;713783;1177;114122;-74
2021/12/01 03:07:09;;;;;;;16.95;7.03;;;;;;;1.76;100.00;98848.05;713842;1202;113683;-74
2021/12/01 03:22:13;;;;;;;14.43;6.03;;;;;;;1.51;100.00;98857.60;713746;1188;113509;-74
2021/12/01 03:37:15;;;;;;;13.40;5.70;;;;;;;1.34;100.00;98840.73;713802;1189;113879;-74
2021/12/01 03:52:18;;;;;;;10.73;5.20;;;;;;;1.16;100.00;98851.48;713642;1187;114130;-74
2021/12/01 04:07:20;;;;;;;97.45;33.20;;;;;;;0.97;100.00;98861.47;713676;1203;114294;-74
2021/12/01 04:22:23;;;;;;;23.47;9.70;;;;;;;0.80;100.00;98862.66;713997;1203;114492;-74
2021/12/01 04:37:25;;;;;;;20.83;9.65;;;;;;;0.33;100.00;98883.91;713781;1200;115254;-75
2021/12/01 04:52:28;;;;;;;18.63;8.73;;;;;;;0.10;100.00;98900.92;713710;1178;114467;-75
2021/12/01 05:07:30;;;;;;;63.38;19.53;;;;;;;0.25;100.00;98893.92;713801;1177;114190;-74
2021/12/01 05:22:33;;;;;;;17.58;7.90;;;;;;;0.27;100.00;98898.98;713717;1177;114141;-74
2021/12/01 05:37:35;;;;;;;361.55;84.93;;;;;;;0.13;100.00;98895.58;713876;1199;114013;-74
2021/12/01 05:52:37;;;;;;;56.33;19.40;;;;;;;0.16;100.00;98897.13;713798;1202;114966;-74
2021/12/01 06:07:40;;;;;;;84.90;29.23;;;;;;;-0.18;100.00;98905.33;713812;1188;114475;-75
2021/12/01 06:22:44;;;;;;;62.67;24.03;;;;;;;-0.22;100.00;98919.34;713798;1199;115304;-74
2021/12/01 06:37:47;;;;;;;66.98;27.25;;;;;;;-0.04;100.00;98914.75;713755;1178;114519;-73
2021/12/01 06:52:49;;;;;;;24.47;10.70;;;;;;;0.59;100.00;98917.41;713923;1203;115870;-73
2021/12/01 07:07:52;;;;;;;31.85;22.00;;;;;;;1.02;100.00;98898.13;714214;1199;114112;-73
2021/12/01 07:22:55;;;;;;;374.17;132.40;;;;;;;1.28;100.00;98890.27;714808;1200;115049;-73
2021/12/01 07:37:58;;;;;;;168.83;67.70;;;;;;;1.68;100.00;98889.13;714725;1200;114596;-72
2021/12/01 07:53:01;;;;;;;48.68;30.88;;;;;;;1.60;100.00;98879.38;714813;1199;114378;-75
2021/12/01 08:08:05;;;;;;;46.07;20.70;;;;;;;1.77;100.00;98873.78;714761;1200;114690;-75
2021/12/01 08:23:07;;;;;;;37.30;16.03;;;;;;;2.11;100.00;98857.49;714884;1178;114063;-75
2021/12/01 08:38:10;;;;;;;35.05;20.25;;;;;;;2.11;100.00;98845.40;715007;1200;115454;-76
2021/12/01 08:53:13;;;;;;;38.88;19.13;;;;;;;2.33;100.00;98833.39;714812;1199;115509;-74
2021/12/01 09:08:19;;;;;;;53.43;21.95;;;;;;;2.79;100.00;98829.81;714953;1202;114740;-76
2021/12/01 09:23:23;;;;;;;34.10;17.00;;;;;;;2.55;100.00;98826.55;715560;1202;114293;-76
2021/12/01 09:38:26;;;;;;;39.55;20.10;;;;;;;2.21;100.00;98813.64;715054;1200;113125;-74
2021/12/01 09:53:28;;;;;;;77.33;26.78;;;;;;;2.38;100.00;98784.69;715153;1175;113814;-76
2021/12/01 10:08:43;;;;;;;125.25;46.20;;;;;;;2.39;100.00;98765.63;714713;1200;115447;-76
2021/12/01 10:23:56;;;;;;;52.60;26.60;;;;;;;2.54;100.00;98742.08;714736;1199;114571;-76
2021/12/01 10:39:08;;;;;;;46.90;21.05;;;;;;;2.70;100.00;98720.95;715092;1200;114663;-77
2021/12/01 10:54:19;;;;;;;109.43;30.45;;;;;;;2.83;100.00;98691.34;715128;1200;113859;-78
2021/12/01 11:09:21;;;;;;;66.63;21.37;;;;;;;2.80;100.00;98668.28;715614;1199;114639;-78
2021/12/01 11:24:24;;;;;;;77.95;25.63;;;;;;;2.98;100.00;98631.45;715620;1200;115440;-73
2021/12/01 11:39:30;;;;;;;36.88;19.88;;;;;;;3.03;100.00;98603.39;717693;1192;114072;-73
2021/12/01 11:54:32;;;;;;;72.60;31.35;;;;;;;3.09;100.00;98563.19;714814;1176;114571;-74
2021/12/01 12:09:37;;;;;;;255.50;93.40;;;;;;;3.14;100.00;98537.70;714822;1199;113788;-74
2021/12/01 12:24:50;;;;;;;89.13;39.35;;;;;;;3.13;100.00;98498.03;714981;1200;114227;-74
2021/12/01 12:39:53;;;;;;;44.55;21.63;;;;;;;3.15;100.00;98472.81;714186;1200;115233;-74
2021/12/01 12:55:01;;;;;;;51.35;25.73;;;;;;;3.06;100.00;98441.67;714080;1199;114706;-73
2021/12/01 13:10:31;;;;;;;51.80;24.50;;;;;;;2.94;100.00;98402.10;714133;1199;115639;-78
2021/12/01 13:25:37;;;;;;;28.28;14.73;;;;;;;2.90;100.00;98377.42;715288;1199;115532;-73
2021/12/01 13:40:40;;;;;;;36.50;17.98;;;;;;;2.81;100.00;98342.77;713956;1203;114604;-73
2021/12/01 13:55:43;;;;;;;39.40;21.43;;;;;;;2.76;100.00;98309.52;713970;1200;113916;-73
2021/12/01 14:10:56;;;;;;;39.68;22.80;;;;;;;2.73;100.00;98270.95;713890;1203;114176;-75
2021/12/01 14:26:01;;;;;;;68.13;33.47;;;;;;;2.73;100.00;98219.16;713956;1199;113845;-77
2021/12/01 14:41:07;;;;;;;53.90;26.35;;;;;;;2.77;100.00;98193.80;714056;1200;114007;-77
2021/12/01 14:56:10;;;;;;;53.35;23.80;;;;;;;2.71;100.00;98155.52;714589;1199;114498;-75
2021/12/01 15:11:22;;;;;;;60.63;24.78;;;;;;;2.70;100.00;98117.63;714200;1202;115603;-74
2021/12/01 15:26:29;;;;;;;44.50;19.07;;;;;;;2.73;100.00;98062.97;714067;1202;113789;-75
2021/12/01 15:41:31;;;;;;;33.73;15.87;;;;;;;2.77;100.00;98069.50;714086;1176;113824;-75
2021/12/01 15:56:37;;;;;;;31.08;14.60;;;;;;;2.74;100.00;98021.39;714098;1199;113830;-75
2021/12/01 16:11:39;;;;;;;37.90;17.95;;;;;;;2.78;100.00;97988.27;714043;1198;114737;-75
2021/12/01 16:26:43;;;;;;;31.80;16.18;;;;;;;2.77;100.00;97952.97;713991;1176;114014;-75
2021/12/01 16:41:46;;;;;;;22.13;11.37;;;;;;;2.79;100.00;97918.20;714128;1199;114707;-74
2021/12/01 16:56:51;;;;;;;29.53;16.23;;;;;;;2.84;100.00;97899.67;714396;1200;114469;-74
2021/12/01 17:11:54;;;;;;;36.13;19.30;;;;;;;2.85;100.00;97875.41;714892;1178;113920;-75
2021/12/01 17:26:58;;;;;;;69.35;28.88;;;;;;;2.95;100.00;97849.44;713914;1175;113893;-75
2021/12/01 17:42:01;;;;;;;74.93;30.33;;;;;;;3.07;100.00;97798.23;713965;1200;114150;-75
2021/12/01 17:57:06;;;;;;;94.83;33.77;;;;;;;3.14;100.00;97771.59;715001;1177;113884;-73
2021/12/01 18:12:08;;;;;;;131.73;55.07;;;;;;;3.14;100.00;97739.66;715025;1200;115294;-72
2021/12/01 18:27:11;;;;;;;50.73;25.15;;;;;;;3.23;100.00;97732.78;713993;1176;114334;-73
2021/12/01 18:42:14;;;;;;;48.40;22.23;;;;;;;3.30;100.00;97718.27;713913;1173;115054;-78
2021/12/01 18:57:18;;;;;;;39.08;19.38;;;;;;;3.42;100.00;97683.34;713992;1200;113709;-74
2021/12/01 19:12:21;;;;;;;50.33;21.93;;;;;;;3.62;100.00;97672.77;714852;1199;114736;-73
2021/12/01 19:27:23;;;;;;;71.95;28.73;;;;;;;3.70;100.00;97631.30;715047;1176;113838;-74
2021/12/01 19:42:25;;;;;;;48.28;21.30;;;;;;;3.76;100.00;97615.13;714899;1200;113860;-76
2021/12/01 19:57:40;;;;;;;58.80;22.73;;;;;;;3.85;100.00;97589.21;714884;1176;113930;-74
2021/12/01 20:12:49;;;;;;;48.45;18.88;;;;;;;4.00;100.00;97580.66;714729;1200;113846;-73
2021/12/01 20:27:55;;;;;;;37.50;17.40;;;;;;;4.05;100.00;97567.22;714543;1177;114427;-74
2021/12/01 20:42:57;;;;;;;36.60;19.47;;;;;;;4.20;100.00;97543.20;713760;1186;113673;-75
2021/12/01 20:58:09;;;;;;;64.77;28.60;;;;;;;4.56;100.00;97545.48;714001;1200;113883;-75
2021/12/01 21:13:14;;;;;;;68.68;32.98;;;;;;;4.98;100.00;97505.47;714038;1177;113836;-75
2021/12/01 21:28:21;;;;;;;56.13;25.60;;;;;;;5.02;100.00;97479.97;715056;1200;113862;-75
2021/12/01 21:43:30;;;;;;;33.37;17.33;;;;;;;5.21;100.00;97453.55;714865;1176;113768;-75
2021/12/01 21:58:34;;;;;;;35.05;18.08;;;;;;;5.20;100.00;97432.92;714856;1200;115500;-75
2021/12/01 22:13:42;;;;;;;31.13;17.10;;;;;;;5.18;100.00;97422.70;715944;1177;113805;-75
2021/12/01 22:28:48;;;;;;;32.28;17.80;;;;;;;5.33;100.00;97408.01;715146;1189;114654;-75
2021/12/01 22:43:51;;;;;;;52.03;24.40;;;;;;;5.68;100.00;97388.59;715028;1177;112980;-76
2021/12/01 22:59:00;;;;;;;33.95;18.43;;;;;;;5.80;100.00;97354.16;715383;1175;113073;-76
2021/12/01 23:14:02;;;;;;;24.53;13.20;;;;;;;6.02;100.00;97343.93;715588;1177;113556;-76
2021/12/01 23:29:04;;;;;;;26.00;13.60;;;;;;;6.19;100.00;97318.55;716351;1200;113139;-78
2021/12/01 23:44:10;;;;;;;19.80;11.40;;;;;;;6.61;100.00;97306.66;716940;1177;113915;-79
2021/12/01 23:59:12;;;;;;;18.68;10.78;;;;;;;6.98;100.00;97293.59;714890;1200;114190;-77
